Time;durP1;ratioP1;P1;durP2;ratioP2;P2;SDS_P1;SDS_P2;PMS_P1;PMS_P2;Temp;Humidity;BMP_temperature;BMP_pressure;BME280_temperature;BME280_humidity;BME280_pressure;Samples;Min_cycle;Max_cycle;Signal;HPM_P1;HPM_P2
2021/12/13 00:01:24;;;;;;;5.95;3.15;;;;;;;;;;5052649;28;20114;-56
2021/12/13 00:03:49;;;;;;;7.38;3.90;;;;;;;;;;5053043;28;20060;-56
2021/12/13 00:06:16;;;;;;;6.20;3.30;;;;;;;;;;5072426;28;20445;-57
2021/12/13 00:08:43;;;;;;;8.20;4.28;;;;;;;;;;5072465;28;20464;-57
2021/12/13 00:11:15;;;;;;;7.10;3.53;;;;;;;;;;5072728;28;20021;-56
2021/12/13 00:13:46;;;;;;;8.38;3.13;;;;;;;;;;5072572;28;20116;-54
2021/12/13 00:16:12;;;;;;;5.40;3.13;;;;;;;;;;5088179;28;20453;-57
2021/12/13 00:18:39;;;;;;;7.43;3.50;;;;;;;;;;5072434;28;20497;-56
2021/12/13 00:21:12;;;;;;;8.90;3.20;;;;;;;;;;5072365;28;20036;-56
2021/12/13 00:23:42;;;;;;;6.43;2.83;;;;;;;;;;5072227;28;20096;-56
2021/12/13 00:26:08;;;;;;;4.90;2.80;;;;;;;;;;5089911;28;20077;-56
2021/12/13 00:28:36;;;;;;;5.30;3.03;;;;;;;;;;5092864;28;20376;-56
2021/12/13 00:31:09;;;;;;;6.38;3.40;;;;;;;;;;5092437;28;20120;-56
2021/12/13 00:33:42;;;;;;;9.43;3.53;;;;;;;;;;5092513;28;20085;-56
2021/12/13 00:36:17;;;;;;;4.63;3.47;;;;;;;;;;5092408;28;20490;-55
2021/12/13 00:38:47;;;;;;;4.70;3.08;;;;;;;;;;5092196;28;20043;-55
2021/12/13 00:41:15;;;;;;;5.35;3.15;;;;;;;;;;5073220;28;20033;-57
2021/12/13 00:43:44;;;;;;;5.32;3.25;;;;;;;;;;5071961;28;20081;-53
2021/12/13 00:46:10;;;;;;;5.05;2.95;;;;;;;;;;5072644;28;20384;-55
2021/12/13 00:48:37;;;;;;;4.93;3.28;;;;;;;;;;5072095;28;20385;-57
2021/12/13 00:51:10;;;;;;;6.07;3.00;;;;;;;;;;5072115;28;20089;-57
2021/12/13 00:53:37;;;;;;;6.10;3.33;;;;;;;;;;5072235;28;20033;-57
2021/12/13 00:56:22;;;;;;;7.22;3.22;;;;;;;;;;5072037;28;20033;-56
2021/12/13 00:58:48;;;;;;;4.43;3.00;;;;;;;;;;5061718;28;20028;-57
2021/12/13 01:01:13;;;;;;;5.20;2.88;;;;;;;;;;5050967;28;20056;-57
2021/12/13 01:03:44;;;;;;;3.15;2.60;;;;;;;;;;5051884;28;20033;-57
2021/12/13 01:06:24;;;;;;;3.05;2.17;;;;;;;;;;5071709;28;20070;-57
2021/12/13 01:09:08;;;;;;;5.47;2.50;;;;;;;;;;5072018;28;20040;-57
2021/12/13 01:11:36;;;;;;;4.50;3.00;;;;;;;;;;5071933;28;20463;-57
2021/12/13 01:14:08;;;;;;;5.75;2.50;;;;;;;;;;5072161;28;20059;-57
2021/12/13 01:16:49;;;;;;;4.50;2.65;;;;;;;;;;5072359;28;20017;-57
2021/12/13 01:22:20;;;;;;;6.78;3.00;;;;;;;;;;5072631;28;20071;-57
2021/12/13 01:25:17;;;;;;;;;;;;;;;;;;5081855;28;20086;-57
2021/12/13 01:27:35;;;;;;;5.72;2.55;;;;;;;;;;5095194;28;19916;-56
2021/12/13 01:30:02;;;;;;;5.00;2.75;;;;;;;;;;5095535;28;20024;-56
2021/12/13 01:32:39;;;;;;;3.08;2.20;;;;;;;;;;5095418;28;20491;-56
2021/12/13 01:35:09;;;;;;;4.55;2.00;;;;;;;;;;5095405;28;20024;-56
2021/12/13 01:37:34;;;;;;;3.10;2.20;;;;;;;;;;5095739;28;20437;-56
2021/12/13 01:40:05;;;;;;;3.72;2.42;;;;;;;;;;5086548;28;20029;-56
2021/12/13 01:42:30;;;;;;;3.03;2.10;;;;;;;;;;5074990;28;20123;-56
2021/12/13 01:44:58;;;;;;;3.88;2.13;;;;;;;;;;5074934;28;20075;-56
2021/12/13 01:47:26;;;;;;;3.40;2.53;;;;;;;;;;5074802;28;20577;-56
2021/12/13 01:49:53;;;;;;;4.63;2.33;;;;;;;;;;5074958;28;20029;-56
2021/12/13 01:52:21;;;;;;;3.05;1.90;;;;;;;;;;5075489;28;20090;-57
2021/12/13 01:54:47;;;;;;;4.07;1.92;;;;;;;;;;5066737;28;20033;-56
2021/12/13 01:59:56;;;;;;;5.05;1.88;;;;;;;;;;5054547;28;20567;-57
2021/12/13 02:02:21;;;;;;;;;;;;;;;;;;5055263;28;20064;-56
2021/12/13 02:04:56;;;;;;;2.08;1.65;;;;;;;;;;5095165;28;19947;-56
2021/12/13 02:07:23;;;;;;;4.80;1.92;;;;;;;;;;5074834;28;20119;-57
2021/12/13 02:09:49;;;;;;;5.57;2.00;;;;;;;;;;5074575;28;20104;-57
2021/12/13 02:12:16;;;;;;;4.60;1.52;;;;;;;;;;5074391;28;20124;-56
2021/12/13 02:16:55;;;;;;;3.67;1.90;;;;;;;;;;5074521;28;20099;-57
2021/12/13 02:17:34;;;;;;;2.60;1.42;;;;;;;;;;5074222;28;20040;-57
2021/12/13 02:20:06;;;;;;;4.47;1.83;;;;;;;;;;5074483;28;20576;-56
2021/12/13 02:22:35;;;;;;;3.92;1.92;;;;;;;;;;5074551;28;20090;-56
2021/12/13 02:25:12;;;;;;;4.30;1.50;;;;;;;;;;5081911;28;20036;-56
2021/12/13 02:27:39;;;;;;;1.83;1.10;;;;;;;;;;5094163;28;20400;-56
2021/12/13 02:30:09;;;;;;;3.15;1.42;;;;;;;;;;5094101;28;20039;-56
2021/12/13 02:32:35;;;;;;;5.93;1.52;;;;;;;;;;5094380;28;20032;-56
2021/12/13 02:35:02;;;;;;;2.92;1.17;;;;;;;;;;5094319;28;20032;-56
2021/12/13 02:37:28;;;;;;;1.95;1.10;;;;;;;;;;5094440;28;20039;-56
2021/12/13 02:39:56;;;;;;;2.45;1.17;;;;;;;;;;5086118;28;20036;-56
2021/12/13 02:42:22;;;;;;;4.07;1.25;;;;;;;;;;5074021;28;20040;-56
2021/12/13 02:44:50;;;;;;;4.38;1.23;;;;;;;;;;5073885;28;20404;-56
2021/12/13 02:47:28;;;;;;;2.17;1.10;;;;;;;;;;5073715;28;20029;-56
2021/12/13 02:49:54;;;;;;;2.72;1.52;;;;;;;;;;5073714;28;20495;-56
2021/12/13 02:52:20;;;;;;;1.50;1.20;;;;;;;;;;5070620;28;20044;-56
2021/12/13 02:54:47;;;;;;;4.13;1.15;;;;;;;;;;5053666;28;20375;-56
2021/12/13 02:57:17;;;;;;;2.90;1.17;;;;;;;;;;5053361;28;20064;-57
2021/12/13 02:59:46;;;;;;;3.83;1.50;;;;;;;;;;5053580;28;20040;-54
2021/12/13 03:02:21;;;;;;;2.03;1.00;;;;;;;;;;5053774;28;20033;-56
2021/12/13 03:04:47;;;;;;;3.55;1.35;;;;;;;;;;5062028;28;20496;-56
2021/12/13 03:07:18;;;;;;;3.13;1.23;;;;;;;;;;5073635;28;20059;-56
2021/12/13 03:09:45;;;;;;;2.78;1.10;;;;;;;;;;5073454;28;20017;-56
2021/12/13 03:12:12;;;;;;;4.10;1.13;;;;;;;;;;5072950;28;20029;-56
2021/12/13 03:14:48;;;;;;;2.00;1.02;;;;;;;;;;5073398;28;20043;-56
2021/12/13 03:17:26;;;;;;;2.40;1.30;;;;;;;;;;5073111;28;20052;-56
2021/12/13 03:20:05;;;;;;;3.53;1.30;;;;;;;;;;5073401;28;20119;-56
2021/12/13 03:22:30;;;;;;;4.82;1.17;;;;;;;;;;5073319;28;20028;-58
2021/12/13 03:24:55;;;;;;;2.20;0.83;;;;;;;;;;5080493;28;20036;-56
2021/12/13 03:27:50;;;;;;;2.30;1.27;;;;;;;;;;5093131;28;20447;-57
2021/12/13 03:30:21;;;;;;;1.38;0.90;;;;;;;;;;5030994;28;20049;-58
2021/12/13 03:32:46;;;;;;;;;;;;;;;;;;5031296;28;20065;-55
2021/12/13 03:35:11;;;;;;;2.92;1.50;;;;;;;;;;5030832;28;19956;-56
2021/12/13 03:37:37;;;;;;;1.90;1.10;;;;;;;;;;5031255;28;20044;-56
2021/12/13 03:40:06;;;;;;;2.40;1.08;;;;;;;;;;5021936;28;20038;-56
2021/12/13 03:42:37;;;;;;;2.08;1.17;;;;;;;;;;5011030;28;20053;-56
2021/12/13 03:45:11;;;;;;;2.15;1.08;;;;;;;;;;5010545;28;20184;-56
2021/12/13 03:47:40;;;;;;;1.60;1.00;;;;;;;;;;5000022;28;20026;-56
2021/12/13 03:50:09;;;;;;;3.67;1.33;;;;;;;;;;4991251;28;20066;-57
2021/12/13 03:52:35;;;;;;;2.00;1.00;;;;;;;;;;4991586;28;20015;-58
2021/12/13 03:55:03;;;;;;;1.88;1.13;;;;;;;;;;4991169;28;20031;-57
2021/12/13 03:57:29;;;;;;;2.25;1.40;;;;;;;;;;4991227;28;20038;-57
2021/12/13 03:59:54;;;;;;;2.50;1.10;;;;;;;;;;4990840;28;20043;-57
2021/12/13 04:02:22;;;;;;;2.88;1.48;;;;;;;;;;4991015;28;20038;-57
2021/12/13 04:04:59;;;;;;;2.50;1.27;;;;;;;;;;4999399;28;20022;-57
2021/12/13 04:07:44;;;;;;;2.47;1.10;;;;;;;;;;5061877;28;20044;-57
2021/12/13 04:10:12;;;;;;;1.85;1.30;;;;;;;;;;5072543;28;20071;-57
2021/12/13 04:12:45;;;;;;;3.50;1.40;;;;;;;;;;5072384;28;20536;-56
2021/12/13 04:15:26;;;;;;;5.30;1.30;;;;;;;;;;5072415;28;20025;-56
2021/12/13 04:18:15;;;;;;;3.92;1.63;;;;;;;;;;5072442;28;20035;-56
2021/12/13 04:20:41;;;;;;;2.80;1.70;;;;;;;;;;5072542;28;20025;-56
2021/12/13 04:23:11;;;;;;;1.45;1.20;;;;;;;;;;5072140;28;20508;-56
2021/12/13 04:25:38;;;;;;;3.72;1.30;;;;;;;;;;5059632;28;20025;-58
2021/12/13 04:28:12;;;;;;;2.08;1.33;;;;;;;;;;5052311;28;20087;-56
2021/12/13 04:30:44;;;;;;;6.07;1.77;;;;;;;;;;5052484;28;20029;-56
2021/12/13 04:33:21;;;;;;;2.05;1.35;;;;;;;;;;5052495;28;20037;-56
2021/12/13 04:35:51;;;;;;;3.08;1.52;;;;;;;;;;5052271;28;20037;-56
2021/12/13 04:38:21;;;;;;;3.97;1.60;;;;;;;;;;5052018;28;20037;-56
2021/12/13 04:40:47;;;;;;;2.75;1.42;;;;;;;;;;5067719;28;20025;-55
2021/12/13 04:43:14;;;;;;;3.80;1.73;;;;;;;;;;5072665;28;20016;-56
2021/12/13 04:45:41;;;;;;;7.78;1.73;;;;;;;;;;5072490;28;20033;-56
2021/12/13 04:48:18;;;;;;;3.80;1.63;;;;;;;;;;5072304;28;20480;-56
2021/12/13 04:50:46;;;;;;;2.38;1.35;;;;;;;;;;5072258;28;20053;-56
2021/12/13 04:53:17;;;;;;;3.38;1.63;;;;;;;;;;5071990;28;20090;-56
2021/12/13 04:55:43;;;;;;;;;;;;;;;;;;5072624;28;20024;-56
2021/12/13 04:58:10;;;;;;;3.30;1.90;;;;;;;;;;5075212;28;20398;-56
2021/12/13 05:00:37;;;;;;;7.75;1.95;;;;;;;;;;5074250;28;20052;-57
2021/12/13 05:03:03;;;;;;;3.42;1.92;;;;;;;;;;5057580;28;20120;-58
2021/12/13 05:05:30;;;;;;;3.22;1.92;;;;;;;;;;5101812;28;20036;-56
2021/12/13 05:07:55;;;;;;;3.40;2.10;;;;;;;;;;5075391;28;20032;-56
2021/12/13 05:10:25;;;;;;;2.55;1.95;;;;;;;;;;5076196;28;20082;-56
2021/12/13 05:12:58;;;;;;;2.63;2.05;;;;;;;;;;5075410;28;20048;-56
2021/12/13 05:15:24;;;;;;;3.33;1.67;;;;;;;;;;5074748;28;20043;-57
2021/12/13 05:17:49;;;;;;;3.40;2.05;;;;;;;;;;5075178;28;20033;-57
2021/12/13 05:20:17;;;;;;;4.40;2.83;;;;;;;;;;5074995;28;20101;-56
2021/12/13 05:22:56;;;;;;;2.92;2.22;;;;;;;;;;5055401;28;20100;-56
2021/12/13 05:25:31;;;;;;;4.55;2.50;;;;;;;;;;5055983;28;20028;-56
2021/12/13 05:27:58;;;;;;;3.50;2.63;;;;;;;;;;5055435;28;20033;-56
2021/12/13 05:30:23;;;;;;;2.45;1.80;;;;;;;;;;5055400;28;20088;-57
2021/12/13 05:32:52;;;;;;;5.53;3.10;;;;;;;;;;5055477;28;20427;-56
2021/12/13 05:35:17;;;;;;;3.75;2.45;;;;;;;;;;5055080;28;20128;-56
2021/12/13 05:37:47;;;;;;;4.18;2.67;;;;;;;;;;5054920;28;20044;-56
2021/12/13 05:40:15;;;;;;;3.00;2.22;;;;;;;;;;5066232;28;20025;-56
2021/12/13 05:43:00;;;;;;;5.22;2.85;;;;;;;;;;5075113;28;20527;-56
2021/12/13 05:45:34;;;;;;;5.22;3.40;;;;;;;;;;5074528;28;20066;-56
2021/12/13 05:48:14;;;;;;;4.55;2.80;;;;;;;;;;5074860;28;20074;-57
2021/12/13 05:50:42;;;;;;;3.97;2.60;;;;;;;;;;5075043;28;20043;-56
2021/12/13 05:53:12;;;;;;;5.40;3.13;;;;;;;;;;5074871;28;20028;-57
2021/12/13 05:55:46;;;;;;;6.60;2.90;;;;;;;;;;5075344;28;20012;-57
2021/12/13 05:58:12;;;;;;;5.43;2.95;;;;;;;;;;5074781;28;20047;-56
2021/12/13 06:00:39;;;;;;;9.35;3.00;;;;;;;;;;5070631;28;20408;-57
2021/12/13 06:03:07;;;;;;;3.17;2.15;;;;;;;;;;5078956;28;20032;-58
2021/12/13 06:05:34;;;;;;;4.68;2.70;;;;;;;;;;5073994;28;20025;-58
2021/12/13 06:08:03;;;;;;;4.65;2.88;;;;;;;;;;5073698;28;20099;-58
2021/12/13 06:10:35;;;;;;;4.50;2.28;;;;;;;;;;5072896;28;20545;-57
2021/12/13 06:13:03;;;;;;;4.03;2.30;;;;;;;;;;5101437;28;20027;-58
2021/12/13 06:15:28;;;;;;;3.08;2.13;;;;;;;;;;5072539;28;20041;-58
2021/12/13 06:17:56;;;;;;;5.70;1.85;;;;;;;;;;5070515;28;20040;-57
2021/12/13 06:20:32;;;;;;;4.78;2.30;;;;;;;;;;5072464;28;20104;-57
2021/12/13 06:23:03;;;;;;;6.63;2.17;;;;;;;;;;5070526;28;20499;-56
2021/12/13 06:25:28;;;;;;;3.85;2.10;;;;;;;;;;5078924;28;20123;-58
2021/12/13 06:27:55;;;;;;;3.83;1.50;;;;;;;;;;5081800;28;20143;-59
2021/12/13 06:30:25;;;;;;;3.65;2.38;;;;;;;;;;5076942;28;20117;-59
2021/12/13 06:32:51;;;;;;;5.43;2.10;;;;;;;;;;5072048;28;20032;-59
2021/12/13 06:35:37;;;;;;;5.35;1.73;;;;;;;;;;5072286;28;20079;-58
2021/12/13 06:38:20;;;;;;;3.70;1.80;;;;;;;;;;5074054;28;20480;-58
2021/12/13 06:40:47;;;;;;;3.53;1.25;;;;;;;;;;5074452;28;20023;-58
2021/12/13 06:43:23;;;;;;;3.28;1.48;;;;;;;;;;5074404;28;20020;-58
2021/12/13 06:45:49;;;;;;;4.25;1.50;;;;;;;;;;5073925;28;20032;-57
2021/12/13 06:48:14;;;;;;;8.98;1.42;;;;;;;;;;5074004;28;20477;-57
2021/12/13 06:50:39;;;;;;;4.32;2.22;;;;;;;;;;5073817;28;20048;-57
2021/12/13 06:53:18;;;;;;;12.30;2.30;;;;;;;;;;5076265;28;20493;-57
2021/12/13 06:55:45;;;;;;;3.47;1.70;;;;;;;;;;5094160;28;20039;-57
2021/12/13 06:58:26;;;;;;;2.88;1.60;;;;;;;;;;5079561;28;20035;-56
2021/12/13 07:00:53;;;;;;;2.53;1.73;;;;;;;;;;5068553;28;20048;-57
2021/12/13 07:03:33;;;;;;;4.63;1.92;;;;;;;;;;5079493;28;20036;-56
2021/12/13 07:05:58;;;;;;;;;;;;;;;;;;5082047;28;20032;-56
2021/12/13 07:08:35;;;;;;;6.13;2.35;;;;;;;;;;5070222;28;19921;-57
2021/12/13 07:11:17;;;;;;;9.32;2.17;;;;;;;;;;5064879;28;20029;-57
2021/12/13 07:13:58;;;;;;;6.65;1.80;;;;;;;;;;5066318;28;20025;-55
2021/12/13 07:16:26;;;;;;;3.90;1.90;;;;;;;;;;5053780;28;20068;-57
2021/12/13 07:19:00;;;;;;;5.03;1.75;;;;;;;;;;5052894;28;20060;-56
2021/12/13 07:21:28;;;;;;;4.07;1.88;;;;;;;;;;5053126;28;20029;-56
2021/12/13 07:24:06;;;;;;;5.25;2.05;;;;;;;;;;5053254;28;20060;-56
2021/12/13 07:26:34;;;;;;;6.28;2.83;;;;;;;;;;5053562;28;20029;-57
2021/12/13 07:29:00;;;;;;;4.03;1.48;;;;;;;;;;5053168;28;20040;-56
2021/12/13 07:31:26;;;;;;;2.70;1.80;;;;;;;;;;5094926;28;20064;-57
2021/12/13 07:33:51;;;;;;;7.03;1.98;;;;;;;;;;5072490;28;20060;-56
2021/12/13 07:36:27;;;;;;;5.35;1.95;;;;;;;;;;5072485;28;20568;-58
2021/12/13 07:38:58;;;;;;;7.07;2.17;;;;;;;;;;5072678;28;20046;-59
2021/12/13 07:41:27;;;;;;;5.00;2.10;;;;;;;;;;5067393;28;20040;-57
2021/12/13 07:43:52;;;;;;;3.90;1.87;;;;;;;;;;5073542;28;20036;-56
2021/12/13 07:46:18;;;;;;;5.03;2.78;;;;;;;;;;5071815;28;20009;-56
2021/12/13 07:48:43;;;;;;;5.93;2.20;;;;;;;;;;5070114;28;20025;-56
2021/12/13 07:51:18;;;;;;;4.63;1.80;;;;;;;;;;5073233;28;20094;-56
2021/12/13 07:53:48;;;;;;;3.75;2.10;;;;;;;;;;5076136;28;20825;-56
2021/12/13 07:56:26;;;;;;;12.93;2.20;;;;;;;;;;5069112;28;20063;-56
2021/12/13 07:58:57;;;;;;;3.88;2.03;;;;;;;;;;5070924;28;20036;-57
2021/12/13 08:01:24;;;;;;;5.95;2.25;;;;;;;;;;5070951;28;20542;-57
2021/12/13 08:03:52;;;;;;;4.90;1.88;;;;;;;;;;5070562;28;20028;-57
2021/12/13 08:06:17;;;;;;;6.10;2.40;;;;;;;;;;5075802;28;20098;-58
2021/12/13 08:08:48;;;;;;;2.88;1.77;;;;;;;;;;5070507;28;20087;-58
2021/12/13 08:11:13;;;;;;;6.82;2.28;;;;;;;;;;5071381;28;20119;-57
2021/12/13 08:13:39;;;;;;;8.82;2.80;;;;;;;;;;5070880;28;20108;-57
2021/12/13 08:16:08;;;;;;;4.80;2.47;;;;;;;;;;5069122;28;20036;-58
2021/12/13 08:18:33;;;;;;;6.00;2.25;;;;;;;;;;5070198;28;20040;-57
2021/12/13 08:20:59;;;;;;;8.30;2.38;;;;;;;;;;5067126;28;20033;-59
2021/12/13 08:23:29;;;;;;;7.05;2.22;;;;;;;;;;5067140;28;20041;-56
2021/12/13 08:25:57;;;;;;;6.72;3.15;;;;;;;;;;5067510;28;20040;-58
2021/12/13 08:28:34;;;;;;;7.18;2.80;;;;;;;;;;5068263;28;20029;-58
2021/12/13 08:30:59;;;;;;;4.18;2.70;;;;;;;;;;5069404;28;20419;-58
2021/12/13 08:33:34;;;;;;;5.80;2.78;;;;;;;;;;5071302;28;20045;-58
2021/12/13 08:36:03;;;;;;;4.00;2.58;;;;;;;;;;5071810;28;20028;-57
2021/12/13 08:38:28;;;;;;;3.92;2.58;;;;;;;;;;5071374;28;20097;-58
2021/12/13 08:40:53;;;;;;;7.00;4.23;;;;;;;;;;5071519;28;20033;-57
2021/12/13 08:43:36;;;;;;;4.25;2.80;;;;;;;;;;5071874;28;20941;-57
2021/12/13 08:46:03;;;;;;;5.13;3.13;;;;;;;;;;5071500;28;20079;-57
2021/12/13 08:48:28;;;;;;;9.02;2.45;;;;;;;;;;5069786;28;20090;-58
2021/12/13 08:50:56;;;;;;;6.35;3.67;;;;;;;;;;5072883;28;20036;-57
2021/12/13 08:53:24;;;;;;;4.40;2.90;;;;;;;;;;5071608;28;20107;-57
2021/12/13 08:55:55;;;;;;;4.95;2.78;;;;;;;;;;5070852;28;20037;-58
2021/12/13 08:58:20;;;;;;;;;;;;;;;;;;5070740;28;20051;-59
2021/12/13 09:00:48;;;;;;;5.20;2.42;;;;;;;;;;5071042;28;20336;-58
2021/12/13 09:03:20;;;;;;;6.53;2.83;;;;;;;;;;5070533;28;20131;-58
2021/12/13 09:06:06;;;;;;;5.85;3.40;;;;;;;;;;5069475;28;20111;-58
2021/12/13 09:08:36;;;;;;;5.40;2.58;;;;;;;;;;5068084;28;20037;-58
2021/12/13 09:11:02;;;;;;;;;;;;;;;;;;5071159;28;20389;-58
2021/12/13 09:13:36;;;;;;;5.80;3.25;;;;;;;;;;5071265;28;19943;-58
2021/12/13 09:16:02;;;;;;;7.00;3.58;;;;;;;;;;5062826;28;20055;-58
2021/12/13 09:18:27;;;;;;;4.97;3.40;;;;;;;;;;5071891;28;20029;-58
2021/12/13 09:20:54;;;;;;;6.55;3.53;;;;;;;;;;5073930;28;20105;-58
2021/12/13 09:23:27;;;;;;;5.82;3.15;;;;;;;;;;5073051;28;20488;-57
2021/12/13 09:25:52;;;;;;;4.65;2.92;;;;;;;;;;5072769;28;20468;-58
2021/12/13 09:28:20;;;;;;;5.07;3.28;;;;;;;;;;5073969;28;20098;-58
2021/12/13 09:30:45;;;;;;;6.32;3.00;;;;;;;;;;5068709;28;20094;-58
2021/12/13 09:33:21;;;;;;;7.10;3.17;;;;;;;;;;5069740;28;20416;-58
2021/12/13 09:35:46;;;;;;;6.13;3.10;;;;;;;;;;5070448;28;20499;-58
2021/12/13 09:38:18;;;;;;;4.70;2.92;;;;;;;;;;5070866;28;20036;-58
2021/12/13 09:40:47;;;;;;;6.63;3.33;;;;;;;;;;5069785;28;20435;-58
2021/12/13 09:43:12;;;;;;;7.00;2.97;;;;;;;;;;5073147;28;20012;-58
2021/12/13 09:45:40;;;;;;;9.90;3.20;;;;;;;;;;5070050;28;20544;-57
2021/12/13 09:48:38;;;;;;;5.63;3.05;;;;;;;;;;5071725;28;20036;-58
2021/12/13 09:51:06;;;;;;;5.30;3.10;;;;;;;;;;5006220;28;20030;-58
2021/12/13 09:53:33;;;;;;;6.15;2.72;;;;;;;;;;5003594;28;20803;-58
2021/12/13 09:56:04;;;;;;;10.23;3.58;;;;;;;;;;4989825;28;20471;-58
2021/12/13 09:58:49;;;;;;;4.13;2.90;;;;;;;;;;5007278;28;20469;-57
2021/12/13 10:01:16;;;;;;;5.10;3.03;;;;;;;;;;4929098;29;20044;-58
2021/12/13 10:03:44;;;;;;;5.13;2.53;;;;;;;;;;4930343;29;20028;-56
2021/12/13 10:06:10;;;;;;;4.05;2.85;;;;;;;;;;4929549;29;20111;-59
2021/12/13 10:08:38;;;;;;;5.10;2.78;;;;;;;;;;4929553;29;20139;-59
2021/12/13 10:11:10;;;;;;;4.25;3.00;;;;;;;;;;4928737;29;20040;-58
2021/12/13 10:13:38;;;;;;;6.32;3.28;;;;;;;;;;4929228;29;20035;-56
2021/12/13 10:16:07;;;;;;;8.75;3.45;;;;;;;;;;4928320;29;20514;-56
2021/12/13 10:18:34;;;;;;;4.82;2.85;;;;;;;;;;4927651;29;20110;-57
2021/12/13 10:21:22;;;;;;;5.95;3.20;;;;;;;;;;4930173;29;20123;-57
2021/12/13 10:23:52;;;;;;;5.00;3.33;;;;;;;;;;4922626;29;20413;-58
2021/12/13 10:26:18;;;;;;;5.50;3.33;;;;;;;;;;4954764;28;20413;-57
2021/12/13 10:28:53;;;;;;;5.85;2.92;;;;;;;;;;5005914;28;20049;-57
2021/12/13 10:31:24;;;;;;;8.60;3.30;;;;;;;;;;4987015;28;20112;-57
2021/12/13 10:33:50;;;;;;;7.80;3.22;;;;;;;;;;4987147;28;20042;-57
2021/12/13 10:36:15;;;;;;;4.45;2.70;;;;;;;;;;4990209;28;20038;-57
2021/12/13 10:38:43;;;;;;;6.18;4.15;;;;;;;;;;5029217;28;20440;-56
2021/12/13 10:41:20;;;;;;;5.68;2.85;;;;;;;;;;5059417;28;20025;-58
2021/12/13 10:43:53;;;;;;;6.40;2.92;;;;;;;;;;5076199;28;20025;-57
2021/12/13 10:46:22;;;;;;;3.72;2.78;;;;;;;;;;5076751;28;20043;-58
2021/12/13 10:48:52;;;;;;;4.15;2.70;;;;;;;;;;5065908;28;20068;-58
2021/12/13 10:51:19;;;;;;;7.57;2.60;;;;;;;;;;5069055;28;20028;-58
2021/12/13 10:53:45;;;;;;;7.00;2.58;;;;;;;;;;5074043;28;20044;-58
2021/12/13 10:56:20;;;;;;;5.93;3.08;;;;;;;;;;5088121;28;20032;-58
2021/12/13 10:58:47;;;;;;;5.50;2.60;;;;;;;;;;5080634;28;20040;-58
2021/12/13 11:01:16;;;;;;;6.03;3.25;;;;;;;;;;5084999;28;20036;-58
2021/12/13 11:03:41;;;;;;;4.30;3.08;;;;;;;;;;5071576;27;20404;-57
2021/12/13 11:06:08;;;;;;;3.92;2.25;;;;;;;;;;5062452;28;20044;-57
2021/12/13 11:08:33;;;;;;;7.38;2.75;;;;;;;;;;5054588;28;20040;-57
2021/12/13 11:11:07;;;;;;;6.18;3.45;;;;;;;;;;5057240;28;20028;-57
2021/12/13 11:13:35;;;;;;;5.97;2.85;;;;;;;;;;5048825;28;20066;-58
2021/12/13 11:16:06;;;;;;;6.82;2.72;;;;;;;;;;5048762;28;20040;-58
2021/12/13 11:18:32;;;;;;;6.68;2.67;;;;;;;;;;5047960;28;20032;-58
2021/12/13 11:21:12;;;;;;;6.22;2.72;;;;;;;;;;5048724;28;20040;-59
2021/12/13 11:23:38;;;;;;;2.97;2.30;;;;;;;;;;5048655;28;20029;-58
2021/12/13 11:26:05;;;;;;;6.72;3.75;;;;;;;;;;5048574;28;20756;-57
2021/12/13 11:28:32;;;;;;;4.07;2.65;;;;;;;;;;5048922;28;20040;-58
2021/12/13 11:30:57;;;;;;;5.60;3.08;;;;;;;;;;5049103;28;20041;-59
2021/12/13 11:33:23;;;;;;;5.82;3.00;;;;;;;;;;5048275;28;20052;-57
2021/12/13 11:36:06;;;;;;;5.20;2.72;;;;;;;;;;5053514;28;20481;-57
2021/12/13 11:38:50;;;;;;;4.20;2.85;;;;;;;;;;5061934;28;20033;-58
2021/12/13 11:41:15;;;;;;;5.20;2.65;;;;;;;;;;5049636;28;20063;-58
2021/12/13 11:43:40;;;;;;;4.83;2.63;;;;;;;;;;5071833;28;20052;-58
2021/12/13 11:46:05;;;;;;;5.57;2.80;;;;;;;;;;5068018;28;20456;-57
2021/12/13 11:48:49;;;;;;;5.10;2.38;;;;;;;;;;5066839;28;20444;-58
2021/12/13 11:51:33;;;;;;;4.22;2.45;;;;;;;;;;5072635;28;20028;-57
2021/12/13 11:54:25;;;;;;;7.18;2.58;;;;;;;;;;5067937;28;20617;-58
2021/12/13 11:57:08;;;;;;;5.72;2.72;;;;;;;;;;5066186;28;20047;-58
2021/12/13 11:59:51;;;;;;;4.15;2.92;;;;;;;;;;5067371;28;20050;-58
2021/12/13 12:02:19;;;;;;;4.70;2.53;;;;;;;;;;5067719;28;20377;-57
2021/12/13 12:04:59;;;;;;;5.43;3.00;;;;;;;;;;5067739;28;20017;-57
2021/12/13 12:07:31;;;;;;;7.47;2.70;;;;;;;;;;5066790;28;20402;-58
2021/12/13 12:10:05;;;;;;;5.82;2.80;;;;;;;;;;5067727;28;20460;-58
2021/12/13 12:12:49;;;;;;;3.33;2.60;;;;;;;;;;5068416;28;20025;-57
2021/12/13 12:15:15;;;;;;;5.85;2.58;;;;;;;;;;5065376;28;20032;-58
2021/12/13 12:17:40;;;;;;;5.10;2.70;;;;;;;;;;5067773;28;20032;-57
2021/12/13 12:20:12;;;;;;;5.25;2.75;;;;;;;;;;5099515;28;20025;-57
2021/12/13 12:22:54;;;;;;;4.47;2.28;;;;;;;;;;5068137;28;20033;-57
2021/12/13 12:25:20;;;;;;;3.88;2.42;;;;;;;;;;5067091;28;20075;-58
2021/12/13 12:27:46;;;;;;;6.10;2.97;;;;;;;;;;5068188;28;20674;-58
2021/12/13 12:30:13;;;;;;;3.53;2.33;;;;;;;;;;5067095;28;20037;-60
2021/12/13 12:32:40;;;;;;;2.67;2.08;;;;;;;;;;5067363;28;20063;-57
2021/12/13 12:35:05;;;;;;;4.32;2.78;;;;;;;;;;5066660;28;20037;-57
2021/12/13 12:37:49;;;;;;;5.28;2.45;;;;;;;;;;5066394;28;20029;-57
2021/12/13 12:40:29;;;;;;;4.50;2.22;;;;;;;;;;5066981;28;20044;-57
2021/12/13 12:42:59;;;;;;;3.20;1.75;;;;;;;;;;5067158;28;20033;-58
2021/12/13 12:45:28;;;;;;;4.60;2.75;;;;;;;;;;5066306;28;20029;-57
2021/12/13 12:47:53;;;;;;;3.40;1.90;;;;;;;;;;5067578;28;20090;-57
2021/12/13 12:50:24;;;;;;;3.65;2.03;;;;;;;;;;5067030;28;20025;-57
2021/12/13 12:52:58;;;;;;;4.90;2.08;;;;;;;;;;5070822;28;20033;-57
2021/12/13 12:55:30;;;;;;;3.88;2.33;;;;;;;;;;5066693;28;20576;-60
2021/12/13 12:57:56;;;;;;;3.80;2.08;;;;;;;;;;5067137;28;20523;-58
2021/12/13 13:00:28;;;;;;;4.00;1.60;;;;;;;;;;5069402;28;20469;-57
2021/12/13 13:02:53;;;;;;;2.95;1.88;;;;;;;;;;5031949;28;20887;-57
2021/12/13 13:05:20;;;;;;;4.05;2.35;;;;;;;;;;5030287;28;20026;-58
2021/12/13 13:07:49;;;;;;;2.90;1.73;;;;;;;;;;5032573;28;20639;-58
2021/12/13 13:10:24;;;;;;;3.35;1.60;;;;;;;;;;5027689;28;20033;-58
2021/12/13 13:12:50;;;;;;;4.85;2.47;;;;;;;;;;5026748;28;20034;-58
2021/12/13 13:15:25;;;;;;;3.00;1.73;;;;;;;;;;5027141;28;20026;-59
2021/12/13 13:17:56;;;;;;;6.95;1.90;;;;;;;;;;5028424;28;20052;-58
2021/12/13 13:20:27;;;;;;;3.95;1.50;;;;;;;;;;5031236;28;20401;-58
2021/12/13 13:22:53;;;;;;;5.00;2.35;;;;;;;;;;5030626;28;20052;-58
2021/12/13 13:25:23;;;;;;;4.70;2.00;;;;;;;;;;5031129;28;20017;-58
2021/12/13 13:27:49;;;;;;;2.80;1.67;;;;;;;;;;5031501;28;20068;-58
2021/12/13 13:30:17;;;;;;;5.28;2.20;;;;;;;;;;5033235;28;20497;-58
2021/12/13 13:32:42;;;;;;;3.63;2.13;;;;;;;;;;5026128;28;20175;-58
2021/12/13 13:35:09;;;;;;;1.40;1.30;;;;;;;;;;5030901;28;20132;-59
2021/12/13 13:37:37;;;;;;;3.33;2.33;;;;;;;;;;5030610;28;20112;-59
2021/12/13 13:40:09;;;;;;;4.88;1.80;;;;;;;;;;5033029;28;20478;-58
2021/12/13 13:42:38;;;;;;;3.63;1.65;;;;;;;;;;5036714;28;20112;-58
2021/12/13 13:45:09;;;;;;;6.47;1.80;;;;;;;;;;5031592;28;20043;-59
2021/12/13 13:47:39;;;;;;;4.18;1.58;;;;;;;;;;5029713;28;20057;-58
2021/12/13 13:50:25;;;;;;;2.85;1.52;;;;;;;;;;5030596;28;20029;-58
2021/12/13 13:52:53;;;;;;;4.28;1.98;;;;;;;;;;5029814;28;20021;-57
2021/12/13 13:55:26;;;;;;;4.60;1.92;;;;;;;;;;5030256;28;20082;-58
2021/12/13 13:57:54;;;;;;;1.58;1.20;;;;;;;;;;5035832;28;20037;-58
2021/12/13 14:00:20;;;;;;;4.78;1.98;;;;;;;;;;5034297;28;20121;-57
2021/12/13 14:02:45;;;;;;;3.72;1.77;;;;;;;;;;5073188;28;20047;-58
2021/12/13 14:05:11;;;;;;;2.25;1.65;;;;;;;;;;5069987;28;20036;-57
2021/12/13 14:07:38;;;;;;;3.90;1.60;;;;;;;;;;5072105;28;20029;-58
2021/12/13 14:10:08;;;;;;;3.65;1.48;;;;;;;;;;5070193;28;20499;-57
2021/12/13 14:12:33;;;;;;;;;;;;;;;;;;5074115;28;20043;-58
2021/12/13 14:14:59;;;;;;;3.80;1.92;;;;;;;;;;5073774;28;19913;-58
2021/12/13 14:17:38;;;;;;;7.53;1.85;;;;;;;;;;5074861;28;20036;-58
2021/12/13 14:20:27;;;;;;;3.55;1.48;;;;;;;;;;5070820;28;20039;-58
2021/12/13 14:22:54;;;;;;;3.80;1.75;;;;;;;;;;5026355;28;20172;-59
2021/12/13 14:25:31;;;;;;;4.15;1.98;;;;;;;;;;5026543;28;20108;-58
2021/12/13 14:27:57;;;;;;;1.58;1.27;;;;;;;;;;5024086;28;20621;-58
2021/12/13 14:30:28;;;;;;;6.78;1.60;;;;;;;;;;5026136;28;20022;-57
2021/12/13 14:32:53;;;;;;;3.88;1.77;;;;;;;;;;5026326;28;20076;-58
2021/12/13 14:35:25;;;;;;;3.28;1.17;;;;;;;;;;5026349;28;20119;-58
2021/12/13 14:37:52;;;;;;;2.05;1.80;;;;;;;;;;5025032;28;20060;-57
2021/12/13 14:40:17;;;;;;;7.57;1.90;;;;;;;;;;5026735;28;20129;-58
2021/12/13 14:42:43;;;;;;;2.83;1.60;;;;;;;;;;5028317;28;20033;-58
2021/12/13 14:45:10;;;;;;;4.68;2.17;;;;;;;;;;5025578;28;20022;-58
2021/12/13 14:47:37;;;;;;;3.90;2.30;;;;;;;;;;5026061;28;20049;-58
2021/12/13 14:50:14;;;;;;;2.72;1.50;;;;;;;;;;5026469;28;20026;-58
2021/12/13 14:52:47;;;;;;;3.20;2.10;;;;;;;;;;5026665;28;20033;-58
2021/12/13 14:55:14;;;;;;;2.20;1.40;;;;;;;;;;5020757;28;20394;-59
2021/12/13 14:57:40;;;;;;;2.08;1.20;;;;;;;;;;5008822;28;20038;-59
2021/12/13 15:00:09;;;;;;;2.05;1.20;;;;;;;;;;5051205;28;20567;-59
2021/12/13 15:02:39;;;;;;;10.30;1.75;;;;;;;;;;5067611;28;20068;-58
2021/12/13 15:05:07;;;;;;;4.18;1.67;;;;;;;;;;5067866;28;20024;-58
2021/12/13 15:07:34;;;;;;;3.10;1.55;;;;;;;;;;5069404;28;20070;-59
2021/12/13 15:10:07;;;;;;;5.95;1.38;;;;;;;;;;5089232;28;20032;-59